Clarkson Valley, Missouri
Current Conditions -  °F | °C
As of 10:54 PM on Saturday 20 Dec 2014 (Local Time) from KSUS Reporting Station
Overcast Overcast  
Wind Chill:   Ceiling: 2800
Heat Index:   Visibility: 10mi
Dew Point:   Wind: 5mph
Humidity: 76%   Direction: 160°SSE
Pressure: 30.23"   Gusts: NA
Location:  38.6517°N, 90.5361°W
Report Text: KSUS 210454Z 16004KT 10SM OVC028 05/01 A3023 RMK AO2 SLP242 T00500011
Loading
Personal Weather Stations






























Interactive Weather Map New forecast layout! Learn more

10-Day Weather Forecast

Advertisements
Track Severe Weather on mobile